Time;durP1;ratioP1;P1;durP2;ratioP2;P2;SDS_P1;SDS_P2;PMS_P1;PMS_P2;Temp;Humidity;BMP_temperature;BMP_pressure;BME280_temperature;BME280_humidity;BME280_pressure;Samples;Min_cycle;Max_cycle;Signal;HPM_P1;HPM_P2
2022/04/27 00:01:10;;;;;;;2.08;1.98;;;19.80;52.30;;;;;;4980004;28;20495;-17
2022/04/27 00:03:36;;;;;;;2.00;1.90;;;19.80;52.20;;;;;;4980423;28;20070;-16
2022/04/27 00:06:02;;;;;;;2.00;1.90;;;19.70;52.30;;;;;;4976353;28;20054;-17
2022/04/27 00:08:27;;;;;;;1.98;1.88;;;19.70;52.20;;;;;;4977616;28;20045;-17
2022/04/27 00:10:53;;;;;;;1.80;1.70;;;19.70;52.30;;;;;;4977255;28;20100;-17
2022/04/27 00:13:18;;;;;;;2.00;1.90;;;19.70;52.30;;;;;;4976277;28;20047;-17
2022/04/27 00:15:44;;;;;;;1.98;1.77;;;19.70;52.30;;;;;;4978080;28;20154;-17
2022/04/27 00:18:10;;;;;;;1.80;1.70;;;19.80;52.30;;;;;;4971942;28;20130;-17
2022/04/27 00:20:35;;;;;;;2.00;1.90;;;19.70;52.30;;;;;;4971786;28;20110;-17
2022/04/27 00:23:01;;;;;;;1.85;1.75;;;19.70;52.30;;;;;;4969303;28;20043;-17
2022/04/27 00:25:26;;;;;;;2.13;2.03;;;19.70;52.30;;;;;;4977920;28;20039;-17
2022/04/27 00:27:52;;;;;;;2.10;2.00;;;19.70;52.30;;;;;;4978083;28;20096;-18
2022/04/27 00:30:18;;;;;;;1.80;1.70;;;19.70;52.40;;;;;;4994581;28;20050;-17
2022/04/27 00:32:43;;;;;;;1.95;1.85;;;19.70;52.50;;;;;;4997934;28;20499;-17
2022/04/27 00:35:09;;;;;;;2.05;1.85;;;19.70;52.40;;;;;;4980523;28;20035;-16
2022/04/27 00:37:34;;;;;;;1.95;1.85;;;19.70;52.40;;;;;;4976969;28;20082;-17
2022/04/27 00:40:00;;;;;;;1.90;1.80;;;19.70;52.50;;;;;;4977527;28;20416;-17
2022/04/27 00:42:26;;;;;;;2.17;2.08;;;19.70;52.50;;;;;;4980235;28;20043;-17
2022/04/27 00:44:51;;;;;;;1.90;1.80;;;19.70;52.40;;;;;;4994712;28;20062;-16
2022/04/27 00:47:18;;;;;;;2.05;1.95;;;19.70;52.40;;;;;;4977510;28;20034;-17
2022/04/27 00:49:48;;;;;;;1.70;1.60;;;19.70;52.40;;;;;;4994675;28;20141;-17
2022/04/27 00:52:16;;;;;;;1.75;1.65;;;19.70;52.50;;;;;;4997233;28;20038;-16
2022/04/27 00:54:43;;;;;;;1.90;1.80;;;19.70;52.50;;;;;;4993759;28;20046;-17
2022/04/27 00:57:08;;;;;;;1.88;1.77;;;19.70;52.50;;;;;;4977828;28;20043;-16
2022/04/27 00:59:35;;;;;;;1.90;1.80;;;19.70;52.50;;;;;;4977139;28;20098;-17
2022/04/27 01:02:01;;;;;;;1.83;1.73;;;19.70;52.50;;;;;;4977783;28;20055;-17
2022/04/27 01:04:27;;;;;;;1.70;1.60;;;19.60;52.70;;;;;;4984124;28;20846;-17
2022/04/27 01:06:52;;;;;;;2.15;2.05;;;19.60;52.70;;;;;;4997025;28;20050;-17
2022/04/27 01:09:18;;;;;;;2.00;1.90;;;19.60;52.80;;;;;;4977002;28;20563;-17
2022/04/27 01:11:46;;;;;;;1.55;1.55;;;19.60;52.60;;;;;;4989825;28;20079;-17
2022/04/27 01:14:12;;;;;;;1.70;1.60;;;19.70;52.70;;;;;;4996987;28;20042;-16
2022/04/27 01:16:38;;;;;;;1.63;1.52;;;19.60;52.70;;;;;;4993071;28;20526;-17
2022/04/27 01:19:05;;;;;;;1.75;1.65;;;19.60;52.60;;;;;;4977115;28;20041;-17
2022/04/27 01:21:30;;;;;;;3.63;2.03;;;19.60;53.40;;;;;;4982528;28;20046;-17
2022/04/27 01:23:56;;;;;;;1.90;1.80;;;19.60;52.70;;;;;;4977316;28;20039;-17
2022/04/27 01:26:22;;;;;;;1.90;1.80;;;19.60;52.80;;;;;;4975291;28;20089;-17
2022/04/27 01:28:47;;;;;;;1.80;1.70;;;19.60;53.40;;;;;;4977221;28;20125;-17
2022/04/27 01:31:14;;;;;;;1.90;1.80;;;19.60;52.90;;;;;;4982008;28;20504;-17
2022/04/27 01:33:39;;;;;;;2.10;1.90;;;19.50;52.70;;;;;;4976218;28;20043;-17
2022/04/27 01:36:09;;;;;;;2.00;1.90;;;19.60;52.90;;;;;;4977014;28;20043;-17
2022/04/27 01:38:35;;;;;;;1.73;1.63;;;19.60;52.90;;;;;;4977379;28;20043;-17
2022/04/27 01:41:02;;;;;;;1.88;1.77;;;19.60;52.90;;;;;;4996574;28;20038;-17
2022/04/27 01:43:29;;;;;;;2.05;1.95;;;19.50;52.90;;;;;;4995933;28;20046;-16
2022/04/27 01:45:55;;;;;;;2.10;2.00;;;19.60;53.00;;;;;;4988329;28;20050;-17
2022/04/27 01:48:20;;;;;;;1.77;1.67;;;19.60;52.90;;;;;;4976460;28;20063;-17
2022/04/27 01:50:46;;;;;;;1.85;1.75;;;19.50;52.90;;;;;;4976470;28;20043;-16
2022/04/27 01:55:56;;;;;;;1.50;1.50;;;19.50;52.90;;;;;;4995614;28;20053;-17
2022/04/27 01:58:22;;;;;;;1.60;1.50;;;19.50;52.90;;;;;;4995726;28;20495;-17
2022/04/27 02:00:48;;;;;;;1.90;1.80;;;19.50;53.00;;;;;;4994801;28;20141;-16
2022/04/27 02:03:14;;;;;;;1.73;1.63;;;19.50;52.90;;;;;;4996244;28;20066;-17
2022/04/27 02:05:40;;;;;;;1.52;1.42;;;19.50;52.90;;;;;;4995417;28;20078;-17
2022/04/27 02:08:06;;;;;;;1.40;1.40;;;19.50;53.00;;;;;;4978544;28;20527;-17
2022/04/27 02:10:32;;;;;;;1.33;1.27;;;19.50;53.00;;;;;;4976091;28;20042;-17
2022/04/27 02:12:57;;;;;;;1.63;1.52;;;19.50;52.90;;;;;;4991598;28;20072;-17
2022/04/27 02:15:23;;;;;;;1.50;1.40;;;19.50;53.10;;;;;;4990992;28;20041;-17
2022/04/27 02:17:50;;;;;;;1.23;1.23;;;19.40;52.90;;;;;;4976567;28;20043;-17
2022/04/27 02:20:18;;;;;;;1.75;1.65;;;19.40;53.00;;;;;;4976415;28;20053;-17
2022/04/27 02:22:44;;;;;;;1.70;1.60;;;19.40;52.90;;;;;;4974924;28;20043;-17
2022/04/27 02:25:09;;;;;;;1.75;1.65;;;19.40;53.00;;;;;;4979773;28;20042;-17
2022/04/27 02:27:35;;;;;;;1.70;1.60;;;19.40;52.90;;;;;;4995370;28;20039;-17
2022/04/27 02:30:02;;;;;;;2.28;1.85;;;19.40;53.20;;;;;;4995878;28;20507;-18
2022/04/27 02:32:27;;;;;;;1.67;1.60;;;19.40;52.90;;;;;;4995391;28;20123;-17
2022/04/27 02:34:53;;;;;;;1.60;1.50;;;19.40;53.00;;;;;;4976576;28;21032;-17
2022/04/27 02:37:18;;;;;;;1.45;1.40;;;19.40;52.90;;;;;;4976284;28;20042;-16
2022/04/27 02:39:44;;;;;;;1.67;1.58;;;19.40;52.90;;;;;;4975861;28;20314;-17
2022/04/27 02:42:10;;;;;;;1.70;1.60;;;19.40;53.10;;;;;;4976301;28;20119;-17
2022/04/27 02:44:36;;;;;;;1.60;1.50;;;19.40;52.90;;;;;;4975742;28;20054;-17
2022/04/27 02:47:01;;;;;;;1.40;1.30;;;19.40;53.00;;;;;;4976359;28;20031;-16
2022/04/27 02:52:11;;;;;;;;;;;19.40;53.00;;;;;;4995165;28;20050;-16
2022/04/27 02:54:37;;;;;;;1.48;1.48;;;19.40;53.10;;;;;;4995096;28;19913;-17
2022/04/27 02:57:02;;;;;;;1.67;1.58;;;19.40;53.00;;;;;;4995718;28;20058;-17
2022/04/27 02:59:28;;;;;;;1.58;1.48;;;19.40;52.90;;;;;;4993551;28;20038;-17
2022/04/27 03:01:54;;;;;;;1.55;1.45;;;19.40;53.10;;;;;;4996822;28;20080;-16
2022/04/27 03:04:19;;;;;;;1.58;1.48;;;19.40;53.00;;;;;;4991741;28;20039;-17
2022/04/27 03:06:45;;;;;;;1.30;1.30;;;19.30;52.80;;;;;;4979358;28;20050;-17
2022/04/27 03:09:10;;;;;;;1.50;1.40;;;19.30;52.90;;;;;;4979932;28;20039;-17
2022/04/27 03:11:36;;;;;;;1.20;1.20;;;19.30;52.90;;;;;;4990528;28;20423;-16
2022/04/27 03:14:01;;;;;;;1.88;1.77;;;19.30;53.00;;;;;;4999276;28;20137;-17
2022/04/27 03:16:27;;;;;;;1.50;1.40;;;19.30;52.80;;;;;;4998263;28;20034;-17
2022/04/27 03:18:53;;;;;;;1.40;1.30;;;19.30;52.80;;;;;;4998928;28;20039;-16
2022/04/27 03:21:18;;;;;;;1.10;1.10;;;19.30;52.90;;;;;;4999090;28;20043;-16
2022/04/27 03:23:44;;;;;;;1.80;1.60;;;19.30;52.90;;;;;;4998367;28;20054;-17
2022/04/27 03:26:10;;;;;;;1.23;1.23;;;19.30;52.90;;;;;;4998132;28;20411;-18
2022/04/27 03:28:36;;;;;;;1.40;1.30;;;19.30;52.60;;;;;;4997775;28;20137;-16
2022/04/27 03:31:01;;;;;;;1.20;1.20;;;19.30;52.70;;;;;;4992455;28;20074;-17
2022/04/27 03:33:27;;;;;;;1.40;1.30;;;19.30;52.90;;;;;;4977103;28;20126;-17
2022/04/27 03:35:53;;;;;;;1.40;1.40;;;19.30;52.80;;;;;;4979180;28;20416;-17
2022/04/27 03:38:18;;;;;;;2.05;1.40;;;19.20;52.90;;;;;;4979391;28;20049;-17
2022/04/27 03:40:46;;;;;;;1.45;1.35;;;19.20;52.90;;;;;;4992369;28;20070;-17
2022/04/27 03:43:11;;;;;;;1.10;1.10;;;19.20;52.90;;;;;;4998646;28;20042;-17
2022/04/27 03:45:37;;;;;;;1.35;1.25;;;19.20;52.60;;;;;;4998036;28;20044;-18
2022/04/27 03:48:03;;;;;;;1.55;1.45;;;19.20;52.70;;;;;;4996580;28;20053;-16
2022/04/27 03:50:29;;;;;;;1.58;1.48;;;19.20;52.90;;;;;;4997716;28;20039;-17
2022/04/27 03:52:54;;;;;;;1.60;1.50;;;19.20;52.70;;;;;;4998432;28;20046;-17
2022/04/27 03:55:20;;;;;;;1.63;1.52;;;19.20;52.70;;;;;;4980825;28;20046;-17
2022/04/27 03:57:46;;;;;;;1.48;1.40;;;19.20;52.80;;;;;;4978323;28;20530;-16
2022/04/27 04:00:11;;;;;;;1.50;1.50;;;19.20;52.90;;;;;;4978792;28;20141;-16
2022/04/27 04:02:37;;;;;;;1.65;1.50;;;19.20;53.00;;;;;;4978295;28;20053;-17
2022/04/27 04:05:05;;;;;;;1.40;1.40;;;19.20;52.70;;;;;;4990440;28;20050;-16
2022/04/27 04:07:31;;;;;;;1.60;1.50;;;19.20;52.80;;;;;;4995740;28;20042;-17
2022/04/27 04:09:57;;;;;;;1.30;1.20;;;19.10;52.60;;;;;;4998118;28;20149;-16
2022/04/27 04:12:22;;;;;;;1.20;1.10;;;19.10;52.90;;;;;;4998050;28;20077;-16
2022/04/27 04:14:48;;;;;;;1.25;1.25;;;19.20;52.80;;;;;;4996072;28;20077;-17
2022/04/27 04:17:13;;;;;;;1.80;1.70;;;19.10;52.70;;;;;;4998201;28;20412;-17
2022/04/27 04:19:39;;;;;;;1.48;1.38;;;19.10;52.70;;;;;;4997273;28;20042;-16
2022/04/27 04:22:05;;;;;;;2.25;1.67;;;19.10;52.50;;;;;;4996357;28;20598;-16
2022/04/27 04:24:31;;;;;;;1.27;1.20;;;19.10;52.70;;;;;;4995883;28;20467;-17
2022/04/27 04:29:41;;;;;;;1.48;1.42;;;19.10;52.60;;;;;;4958605;28;20058;-17
2022/04/27 04:32:07;;;;;;;1.52;1.50;;;19.10;52.70;;;;;;4976401;28;20046;-16
2022/04/27 04:34:32;;;;;;;1.35;1.23;;;19.10;52.60;;;;;;4977352;28;20050;-17
2022/04/27 04:36:58;;;;;;;1.60;1.50;;;19.10;52.50;;;;;;4984389;28;20569;-18
2022/04/27 04:39:24;;;;;;;1.38;1.30;;;19.10;52.60;;;;;;4997710;28;20046;-17
2022/04/27 04:41:49;;;;;;;1.67;1.58;;;19.10;52.70;;;;;;4996999;28;20119;-16
2022/04/27 04:44:15;;;;;;;2.10;1.50;;;19.10;52.70;;;;;;4997584;28;20046;-17
2022/04/27 04:46:40;;;;;;;1.25;1.17;;;19.10;52.60;;;;;;4995442;28;20042;-17
2022/04/27 04:49:06;;;;;;;1.20;1.20;;;19.00;52.50;;;;;;5028714;28;20042;-17
2022/04/27 04:51:32;;;;;;;1.40;1.30;;;19.00;52.60;;;;;;4995304;28;20050;-16
2022/04/27 04:53:58;;;;;;;1.00;1.00;;;19.00;52.60;;;;;;4997428;28;20046;-16
2022/04/27 04:56:23;;;;;;;1.25;1.25;;;19.10;52.60;;;;;;4997253;28;20093;-16
2022/04/27 04:58:49;;;;;;;1.50;1.40;;;19.10;52.50;;;;;;4995852;28;20133;-17
2022/04/27 05:01:15;;;;;;;1.70;1.60;;;19.00;52.50;;;;;;4629519;28;10000526;-16
2022/04/27 05:03:40;;;;;;;1.58;1.48;;;19.00;52.30;;;;;;4972933;28;20093;-16
2022/04/27 05:06:06;;;;;;;1.30;1.30;;;19.00;52.00;;;;;;4976598;28;20073;-16
2022/04/27 05:08:31;;;;;;;1.58;1.48;;;18.90;52.50;;;;;;4979188;28;20043;-17
2022/04/27 05:10:57;;;;;;;2.58;1.42;;;18.90;52.90;;;;;;4973120;28;20077;-17
2022/04/27 05:13:23;;;;;;;1.48;1.38;;;19.00;52.60;;;;;;4972825;28;20046;-17
2022/04/27 05:15:49;;;;;;;2.15;1.33;;;19.10;52.50;;;;;;4965526;28;20042;-16
2022/04/27 05:18:16;;;;;;;1.40;1.30;;;19.10;52.10;;;;;;4969452;28;20571;-16
2022/04/27 05:20:42;;;;;;;1.20;1.20;;;19.00;52.00;;;;;;4973086;28;20053;-17
2022/04/27 05:23:07;;;;;;;3.35;1.63;;;19.00;51.90;;;;;;4960718;28;20048;-17
2022/04/27 05:25:34;;;;;;;1.65;1.55;;;19.00;51.70;;;;;;4964801;28;20542;-17
2022/04/27 05:28:02;;;;;;;1.00;1.00;;;19.00;51.60;;;;;;4973665;28;20050;-16
2022/04/27 05:33:12;;;;;;;;;;;19.00;51.60;;;;;;4967491;28;20494;-18
2022/04/27 05:35:41;;;;;;;1.23;1.23;;;19.00;51.60;;;;;;4971820;28;20413;-16
2022/04/27 05:38:06;;;;;;;1.55;1.25;;;18.90;51.70;;;;;;4960230;28;20105;-16
2022/04/27 05:40:33;;;;;;;1.25;1.25;;;18.90;51.20;;;;;;4965220;28;20051;-18
2022/04/27 05:42:59;;;;;;;1.73;1.40;;;18.90;51.40;;;;;;4967923;28;20046;-17
2022/04/27 05:45:24;;;;;;;1.30;1.20;;;18.90;51.10;;;;;;4965711;28;20051;-17
2022/04/27 05:47:50;;;;;;;0.90;0.90;;;18.90;51.40;;;;;;4967209;28;20050;-16
2022/04/27 05:50:16;;;;;;;1.30;1.20;;;18.90;51.20;;;;;;4972439;28;20533;-17
2022/04/27 05:52:56;;;;;;;1.00;1.00;;;18.90;51.30;;;;;;4966956;28;20050;-16
2022/04/27 05:55:22;;;;;;;1.13;1.13;;;18.80;51.30;;;;;;4963721;28;20050;-17
2022/04/27 05:57:48;;;;;;;1.00;1.00;;;18.80;51.40;;;;;;4977879;28;20089;-16
2022/04/27 06:00:14;;;;;;;1.10;1.10;;;18.80;52.00;;;;;;4972935;28;20109;-17
2022/04/27 06:02:39;;;;;;;1.40;1.30;;;18.90;51.30;;;;;;4971867;28;20065;-17
2022/04/27 06:05:07;;;;;;;1.15;1.08;;;18.90;51.40;;;;;;4971882;28;20508;-17
2022/04/27 06:07:34;;;;;;;1.17;1.10;;;18.80;51.50;;;;;;4969382;28;20042;-19
2022/04/27 06:09:59;;;;;;;1.40;1.30;;;18.80;51.20;;;;;;4972893;28;20056;-17
2022/04/27 06:12:30;;;;;;;1.40;1.20;;;18.90;51.60;;;;;;4978458;28;20133;-16
2022/04/27 06:14:55;;;;;;;1.50;1.40;;;18.90;51.30;;;;;;4971366;28;20050;-16
2022/04/27 06:17:21;;;;;;;1.20;1.20;;;18.80;51.40;;;;;;4959869;28;20149;-16
2022/04/27 06:19:47;;;;;;;1.65;1.55;;;18.80;51.30;;;;;;4965743;28;20059;-16
2022/04/27 06:22:12;;;;;;;1.65;1.55;;;18.80;51.30;;;;;;4969540;28;20138;-16
2022/04/27 06:24:38;;;;;;;1.48;1.38;;;18.80;51.20;;;;;;4966599;28;20530;-17
2022/04/27 06:27:04;;;;;;;1.52;1.30;;;18.80;51.30;;;;;;4968821;28;20085;-17
2022/04/27 06:29:29;;;;;;;1.13;1.13;;;18.80;51.10;;;;;;4970688;28;20043;-17
2022/04/27 06:31:55;;;;;;;1.50;1.40;;;18.80;51.20;;;;;;4969575;28;20050;-17
2022/04/27 06:34:20;;;;;;;1.20;1.10;;;18.80;51.10;;;;;;4971477;28;20104;-17
2022/04/27 06:36:46;;;;;;;1.55;1.27;;;18.90;51.20;;;;;;4979891;28;20385;-16
2022/04/27 06:39:14;;;;;;;1.38;1.30;;;18.80;51.20;;;;;;4973994;28;20172;-17
2022/04/27 06:41:41;;;;;;;1.42;1.33;;;18.90;51.30;;;;;;4997586;28;20035;-17
2022/04/27 06:44:07;;;;;;;1.00;1.00;;;18.80;51.10;;;;;;4973530;28;20528;-17
2022/04/27 06:46:32;;;;;;;2.75;1.40;;;18.90;51.20;;;;;;4973869;28;20476;-18
2022/04/27 06:48:58;;;;;;;1.95;1.60;;;18.80;51.00;;;;;;4972279;28;20054;-17
2022/04/27 06:51:23;;;;;;;1.35;1.25;;;18.80;50.90;;;;;;4975628;28;20454;-16
2022/04/27 06:53:49;;;;;;;3.17;1.35;;;18.80;50.90;;;;;;4973224;28;20047;-17
2022/04/27 06:56:16;;;;;;;1.63;1.52;;;18.90;51.10;;;;;;4981905;28;20057;-16
2022/04/27 06:58:42;;;;;;;1.30;1.20;;;18.90;50.90;;;;;;4975087;28;20051;-16
2022/04/27 07:01:08;;;;;;;1.35;1.25;;;18.90;51.10;;;;;;4975130;28;20127;-16
2022/04/27 07:03:35;;;;;;;1.40;1.30;;;19.00;51.20;;;;;;4974664;28;20047;-16
2022/04/27 07:06:01;;;;;;;1.50;1.40;;;19.00;51.20;;;;;;4974880;28;20074;-17
2022/04/27 07:08:28;;;;;;;1.42;1.33;;;19.10;51.00;;;;;;4977141;28;20046;-17
2022/04/27 07:10:53;;;;;;;1.30;1.27;;;19.10;51.00;;;;;;4975430;28;20043;-17
2022/04/27 07:13:19;;;;;;;1.73;1.63;;;19.20;50.90;;;;;;4976834;28;20046;-18
2022/04/27 07:15:44;;;;;;;1.42;1.33;;;19.60;50.60;;;;;;4979100;28;20047;-17
2022/04/27 07:18:10;;;;;;;1.52;1.38;;;20.20;48.90;;;;;;4986876;28;20511;-17
2022/04/27 07:20:36;;;;;;;1.67;1.42;;;19.70;49.50;;;;;;4977115;28;20528;-18
2022/04/27 07:23:02;;;;;;;1.20;1.10;;;19.40;50.10;;;;;;4976939;28;20054;-17
2022/04/27 07:25:27;;;;;;;1.40;1.40;;;19.40;50.40;;;;;;4979635;28;20085;-18
2022/04/27 07:27:53;;;;;;;1.55;1.45;;;19.30;50.30;;;;;;4978210;28;20054;-18
2022/04/27 07:30:20;;;;;;;1.65;1.55;;;19.30;50.40;;;;;;4998238;28;20046;-18
2022/04/27 07:32:47;;;;;;;1.73;1.63;;;19.40;50.30;;;;;;4998223;28;20407;-17
2022/04/27 07:35:12;;;;;;;1.90;1.80;;;19.40;50.30;;;;;;4979443;28;20047;-17
2022/04/27 07:37:38;;;;;;;2.38;1.90;;;19.40;50.30;;;;;;4973409;28;20046;-18
2022/04/27 07:40:10;;;;;;;2.13;1.63;;;19.40;50.20;;;;;;4982178;28;20078;-18
2022/04/27 07:42:36;;;;;;;2.25;1.77;;;19.40;49.90;;;;;;4998790;28;20050;-17
2022/04/27 07:45:01;;;;;;;1.65;1.55;;;19.40;50.00;;;;;;4996848;28;20042;-17
2022/04/27 07:47:27;;;;;;;1.88;1.77;;;19.40;50.00;;;;;;4988338;28;20389;-17
2022/04/27 07:49:52;;;;;;;2.28;1.70;;;19.40;49.90;;;;;;4997221;28;20587;-18
2022/04/27 07:52:18;;;;;;;3.53;1.92;;;19.40;50.00;;;;;;4998388;28;20042;-17
2022/04/27 07:54:44;;;;;;;1.70;1.60;;;19.40;49.90;;;;;;4979691;28;20050;-17
2022/04/27 07:57:09;;;;;;;1.73;1.63;;;19.40;50.00;;;;;;4978724;28;20484;-17
2022/04/27 07:59:35;;;;;;;1.80;1.70;;;19.40;49.70;;;;;;4988650;28;20042;-18
2022/04/27 08:02:01;;;;;;;2.00;1.90;;;19.40;49.80;;;;;;4992485;28;20069;-18
2022/04/27 08:04:26;;;;;;;1.90;1.80;;;19.40;50.10;;;;;;4996756;28;20050;-18
2022/04/27 08:06:52;;;;;;;1.90;1.80;;;19.40;49.80;;;;;;4996236;28;20112;-17
2022/04/27 08:09:17;;;;;;;1.80;1.70;;;19.40;50.10;;;;;;4983607;28;20051;-17
2022/04/27 08:11:43;;;;;;;1.60;1.50;;;19.40;49.70;;;;;;4976931;28;20115;-18
2022/04/27 08:14:08;;;;;;;2.53;1.98;;;19.40;50.00;;;;;;4977015;28;20393;-17
2022/04/27 08:16:34;;;;;;;2.00;1.90;;;19.30;50.30;;;;;;4977126;28;20101;-17
2022/04/27 08:18:59;;;;;;;2.55;2.03;;;19.40;50.10;;;;;;4976206;28;20054;-17
2022/04/27 08:21:27;;;;;;;1.80;1.70;;;19.40;50.20;;;;;;4973749;28;20063;-18
2022/04/27 08:23:52;;;;;;;1.95;1.85;;;19.40;49.80;;;;;;4976300;28;20126;-17
2022/04/27 08:26:18;;;;;;;2.47;1.70;;;19.40;50.30;;;;;;4977042;28;20069;-17
2022/04/27 08:28:45;;;;;;;1.80;1.70;;;19.40;50.70;;;;;;4977276;28;20047;-17
2022/04/27 08:31:13;;;;;;;1.77;1.52;;;19.30;50.80;;;;;;4977698;28;20122;-18
2022/04/27 08:33:38;;;;;;;1.55;1.45;;;19.40;50.80;;;;;;4977756;28;20495;-17
2022/04/27 08:36:04;;;;;;;1.30;1.20;;;19.50;50.70;;;;;;4977657;28;20043;-17
2022/04/27 08:38:30;;;;;;;1.80;1.70;;;19.50;50.70;;;;;;4993569;28;20479;-17
2022/04/27 08:40:56;;;;;;;1.90;1.80;;;19.50;51.40;;;;;;4983523;28;20039;-17
2022/04/27 08:43:21;;;;;;;2.25;1.58;;;19.50;50.80;;;;;;4980581;28;20070;-17
2022/04/27 08:45:47;;;;;;;1.52;1.42;;;19.50;50.80;;;;;;4973763;28;20129;-17
2022/04/27 08:48:14;;;;;;;1.77;1.67;;;19.50;50.90;;;;;;4977181;28;20043;-17
2022/04/27 08:50:39;;;;;;;1.90;1.80;;;19.50;50.90;;;;;;4976099;28;20050;-17
2022/04/27 08:53:05;;;;;;;1.77;1.67;;;19.50;50.40;;;;;;4974255;28;20035;-16
2022/04/27 08:55:31;;;;;;;2.40;1.83;;;19.50;50.40;;;;;;4974200;28;20672;-17
2022/04/27 08:58:08;;;;;;;3.22;1.90;;;19.60;50.20;;;;;;4975705;28;20054;-18
2022/04/27 09:00:34;;;;;;;2.00;1.90;;;19.60;50.00;;;;;;4968779;28;20043;-17
2022/04/27 09:03:23;;;;;;;1.83;1.73;;;19.70;50.20;;;;;;4975927;28;20041;-16
2022/04/27 09:05:50;;;;;;;3.83;1.88;;;19.70;50.20;;;;;;4974892;28;20046;-18
2022/04/27 09:08:16;;;;;;;1.98;1.70;;;19.80;50.40;;;;;;4976524;28;20121;-18
2022/04/27 09:10:41;;;;;;;1.63;1.52;;;19.80;50.40;;;;;;4976812;28;20042;-16
2022/04/27 09:13:07;;;;;;;2.38;1.58;;;19.80;50.40;;;;;;4976138;28;20055;-17
2022/04/27 09:15:32;;;;;;;1.70;1.50;;;19.80;51.20;;;;;;4976770;28;20065;-16
2022/04/27 09:20:52;;;;;;;1.80;1.70;;;19.90;50.60;;;;;;4974310;28;20111;-17
2022/04/27 09:23:40;;;;;;;1.63;1.52;;;19.90;50.60;;;;;;4976175;28;20097;-17
2022/04/27 09:26:19;;;;;;;1.77;1.60;;;20.00;50.60;;;;;;4975640;28;20507;-17
2022/04/27 09:28:53;;;;;;;1.65;1.55;;;20.00;50.80;;;;;;4976674;28;20493;-17
2022/04/27 09:31:32;;;;;;;1.70;1.60;;;20.00;50.80;;;;;;4979467;28;20030;-17
2022/04/27 09:34:01;;;;;;;1.95;1.45;;;20.00;50.90;;;;;;4975947;28;20099;-19
2022/04/27 09:36:27;;;;;;;1.33;1.30;;;20.00;50.90;;;;;;4975924;28;20050;-17
2022/04/27 09:38:53;;;;;;;1.70;1.60;;;20.00;50.90;;;;;;4976184;28;20142;-17
2022/04/27 09:41:45;;;;;;;1.58;1.50;;;20.00;51.00;;;;;;4976857;28;20066;-17
2022/04/27 09:44:32;;;;;;;1.45;1.35;;;20.10;51.00;;;;;;4976565;28;20050;-17
2022/04/27 09:46:58;;;;;;;1.35;1.20;;;20.10;50.90;;;;;;4977569;28;20467;-19
2022/04/27 09:49:24;;;;;;;1.33;1.23;;;20.10;51.10;;;;;;4976718;28;20043;-18
2022/04/27 09:51:51;;;;;;;1.40;1.30;;;20.10;51.10;;;;;;4975877;28;20042;-18
2022/04/27 09:54:21;;;;;;;1.23;1.13;;;20.20;51.20;;;;;;4976757;28;20057;-17
2022/04/27 09:56:57;;;;;;;1.50;1.40;;;20.10;51.10;;;;;;4975971;28;20058;-18
2022/04/27 09:59:26;;;;;;;1.40;1.30;;;20.20;51.10;;;;;;4976899;28;20047;-18
2022/04/27 10:01:53;;;;;;;1.15;1.15;;;20.20;51.00;;;;;;4990856;28;20050;-18
2022/04/27 10:04:19;;;;;;;1.48;1.13;;;20.30;51.30;;;;;;4963515;28;20046;-18
2022/04/27 10:06:45;;;;;;;1.10;1.10;;;20.20;51.10;;;;;;4969289;28;20042;-18
2022/04/27 10:09:10;;;;;;;1.00;1.00;;;20.20;51.10;;;;;;4975766;28;20046;-18
2022/04/27 10:11:36;;;;;;;1.55;1.42;;;20.20;51.20;;;;;;4973229;28;20043;-18
2022/04/27 10:14:01;;;;;;;2.33;1.20;;;20.20;51.10;;;;;;4974718;28;20055;-18
2022/04/27 10:16:27;;;;;;;1.38;1.27;;;20.20;51.10;;;;;;4975113;28;20046;-18
2022/04/27 10:18:52;;;;;;;1.20;1.20;;;20.20;51.10;;;;;;4970707;28;20079;-18
2022/04/27 10:21:43;;;;;;;1.05;1.05;;;20.30;51.20;;;;;;4957127;28;20524;-18
2022/04/27 10:24:10;;;;;;;1.25;1.15;;;20.30;51.10;;;;;;4956576;28;20043;-18
2022/04/27 10:26:36;;;;;;;1.33;1.23;;;20.30;51.20;;;;;;4956875;28;20042;-18
2022/04/27 10:29:06;;;;;;;1.42;1.33;;;20.20;51.20;;;;;;4956620;28;20051;-17
2022/04/27 10:31:40;;;;;;;1.40;1.30;;;20.20;51.20;;;;;;4956725;28;20079;-17
2022/04/27 10:34:18;;;;;;;1.58;1.30;;;20.20;51.20;;;;;;4956355;28;20050;-17
2022/04/27 10:36:44;;;;;;;1.17;1.17;;;20.30;51.20;;;;;;4975859;28;20045;-18
2022/04/27 10:39:13;;;;;;;1.20;1.00;;;20.30;51.30;;;;;;4975756;28;20093;-17
2022/04/27 10:41:39;;;;;;;1.00;1.00;;;20.30;51.20;;;;;;4962829;28;20054;-18
2022/04/27 10:44:04;;;;;;;1.20;1.20;;;20.30;51.20;;;;;;4956516;28;20047;-17
2022/04/27 10:46:41;;;;;;;1.50;1.40;;;20.30;51.10;;;;;;4956054;28;20047;-17
2022/04/27 10:49:36;;;;;;;1.10;1.10;;;20.40;51.20;;;;;;4956343;28;20457;-17
2022/04/27 10:52:06;;;;;;;1.10;1.10;;;20.40;51.20;;;;;;4946421;28;20053;-17
2022/04/27 10:54:33;;;;;;;1.13;1.13;;;20.40;51.20;;;;;;4958818;28;20054;-17
2022/04/27 10:57:17;;;;;;;1.80;1.30;;;20.40;51.20;;;;;;4975620;28;20054;-17
2022/04/27 11:00:02;;;;;;;1.25;1.20;;;20.40;51.20;;;;;;4976015;28;20039;-17
2022/04/27 11:02:31;;;;;;;;;;;20.40;51.20;;;;;;4971954;28;20599;-17
2022/04/27 11:04:57;;;;;;;1.10;1.10;;;20.40;51.20;;;;;;4956129;28;19937;-16
2022/04/27 11:07:43;;;;;;;1.77;1.20;;;20.40;51.20;;;;;;4956736;28;20048;-17
2022/04/27 11:10:18;;;;;;;1.35;1.25;;;20.40;51.30;;;;;;4954794;28;20039;-17
2022/04/27 11:12:48;;;;;;;1.27;1.27;;;20.40;51.30;;;;;;4967908;28;20043;-17
2022/04/27 11:15:17;;;;;;;1.00;1.00;;;20.40;51.90;;;;;;4968373;28;20504;-17
2022/04/27 11:17:43;;;;;;;1.20;1.20;;;20.40;51.20;;;;;;4955233;28;20053;-17
2022/04/27 11:20:31;;;;;;;1.00;1.00;;;20.40;51.20;;;;;;4956422;28;20130;-17
2022/04/27 11:22:57;;;;;;;0.80;0.80;;;20.40;51.30;;;;;;4956924;28;20051;-17
2022/04/27 11:25:31;;;;;;;1.20;1.20;;;20.40;51.30;;;;;;4960188;28;20045;-17
2022/04/27 11:27:59;;;;;;;0.90;0.90;;;20.50;51.40;;;;;;4959614;28;20130;-18
2022/04/27 11:30:25;;;;;;;1.25;0.80;;;20.40;51.40;;;;;;4958781;28;20039;-17
2022/04/27 11:32:52;;;;;;;0.80;0.80;;;20.50;51.50;;;;;;4960098;28;20077;-17
2022/04/27 11:35:21;;;;;;;1.10;1.10;;;20.40;51.50;;;;;;4966894;28;20038;-18
2022/04/27 11:37:47;;;;;;;1.00;1.00;;;20.40;51.30;;;;;;4979030;28;20496;-17
2022/04/27 11:40:16;;;;;;;7.50;3.75;;;20.50;51.40;;;;;;4968324;28;20428;-17
2022/04/27 11:42:46;;;;;;;1.20;1.20;;;20.50;51.40;;;;;;4959771;28;20047;-17
2022/04/27 11:45:13;;;;;;;1.00;1.00;;;20.50;51.40;;;;;;4959616;28;20130;-17
2022/04/27 11:47:38;;;;;;;1.10;1.10;;;20.50;51.50;;;;;;4959816;28;20516;-17
2022/04/27 11:50:05;;;;;;;1.15;1.10;;;20.50;51.40;;;;;;4989944;28;20424;-17
2022/04/27 11:52:31;;;;;;;2.17;1.13;;;20.50;51.40;;;;;;4959861;28;20053;-17
2022/04/27 11:55:22;;;;;;;1.02;0.93;;;20.50;51.40;;;;;;4960605;28;20051;-18
2022/04/27 11:57:49;;;;;;;0.82;0.82;;;20.50;51.40;;;;;;4963746;28;20067;-17
2022/04/27 12:00:28;;;;;;;1.27;1.20;;;20.50;51.60;;;;;;4959122;28;20215;-17
2022/04/27 12:03:04;;;;;;;0.90;0.90;;;20.50;51.60;;;;;;4958588;28;20475;-17
2022/04/27 12:05:37;;;;;;;1.13;1.13;;;20.50;51.60;;;;;;4959416;28;20046;-18
2022/04/27 12:08:09;;;;;;;1.10;1.00;;;20.50;51.50;;;;;;4989413;28;20067;-17
2022/04/27 12:10:42;;;;;;;1.00;1.00;;;20.60;51.90;;;;;;4959715;28;20051;-18
2022/04/27 12:13:09;;;;;;;0.88;0.88;;;20.60;51.60;;;;;;4973004;28;20055;-18
2022/04/27 12:15:35;;;;;;;1.10;1.10;;;20.60;51.60;;;;;;4964768;28;20460;-17
2022/04/27 12:18:01;;;;;;;1.02;1.02;;;20.60;51.70;;;;;;4970651;28;20456;-17
2022/04/27 12:20:38;;;;;;;1.20;1.10;;;20.60;51.70;;;;;;4976018;28;20149;-17
2022/04/27 12:23:12;;;;;;;0.95;0.95;;;20.60;51.80;;;;;;4958382;28;20039;-17
2022/04/27 12:25:39;;;;;;;0.80;0.80;;;20.60;51.80;;;;;;4959059;28;20050;-17
2022/04/27 12:28:05;;;;;;;1.08;1.08;;;20.60;51.90;;;;;;4965654;28;20050;-17
2022/04/27 12:30:31;;;;;;;0.90;0.90;;;20.60;51.80;;;;;;4977507;28;20046;-17
2022/04/27 12:32:57;;;;;;;1.10;1.10;;;20.60;52.50;;;;;;4619778;28;9999776;-17
2022/04/27 12:38:17;;;;;;;1.10;1.10;;;20.60;51.90;;;;;;4962537;28;20424;-17
2022/04/27 12:40:42;;;;;;;1.02;1.02;;;20.60;51.90;;;;;;4965951;28;20104;-17
2022/04/27 12:43:08;;;;;;;1.50;1.40;;;20.60;51.90;;;;;;4973719;28;20051;-17
2022/04/27 12:45:34;;;;;;;1.23;1.23;;;20.60;52.00;;;;;;4974014;28;20047;-17
2022/04/27 12:48:00;;;;;;;1.40;1.00;;;20.60;52.10;;;;;;4960308;28;20054;-17
2022/04/27 12:50:26;;;;;;;1.20;1.10;;;20.60;52.20;;;;;;4974321;28;20515;-17
2022/04/27 12:53:04;;;;;;;0.80;0.80;;;20.70;52.20;;;;;;4974429;28;20393;-16
2022/04/27 12:55:30;;;;;;;1.27;1.17;;;20.70;52.30;;;;;;4957367;28;20043;-18
2022/04/27 12:57:56;;;;;;;1.35;1.20;;;20.70;52.30;;;;;;4979335;28;20057;-17
2022/04/27 13:00:22;;;;;;;2.13;1.30;;;20.70;52.30;;;;;;4967696;28;20110;-17
2022/04/27 13:02:47;;;;;;;1.10;1.10;;;20.70;52.30;;;;;;4974101;28;20055;-17
2022/04/27 13:05:13;;;;;;;1.75;1.13;;;20.70;52.30;;;;;;4972137;28;20070;-17